createdAt,value
2018-07-06T00:01:04.307Z,99508.00
2018-07-06T00:03:25.883Z,99504.00
2018-07-06T00:05:47.778Z,99505.00
2018-07-06T00:08:09.363Z,99502.00
2018-07-06T00:10:30.959Z,99501.00
2018-07-06T00:12:52.503Z,99502.00
2018-07-06T00:15:13.982Z,99503.00
2018-07-06T00:17:35.327Z,99510.00
2018-07-06T00:19:56.795Z,99514.00
2018-07-06T00:22:18.078Z,99505.00
2018-07-06T00:24:39.218Z,99513.00
2018-07-06T00:27:02.666Z,99506.00
2018-07-06T00:29:24.679Z,99511.00
2018-07-06T00:31:40.027Z,99515.00
2018-07-06T00:34:01.495Z,99513.00
2018-07-06T00:36:23.152Z,99512.00
2018-07-06T00:38:45.182Z,99515.00
2018-07-06T00:41:06.667Z,99509.00
2018-07-06T00:43:27.974Z,99508.00
2018-07-06T00:45:49.549Z,99524.00
2018-07-06T00:48:04.926Z,99515.00
2018-07-06T00:50:28.121Z,99510.00
2018-07-06T00:52:49.737Z,99518.00
2018-07-06T00:55:11.112Z,99523.00
2018-07-06T00:57:32.514Z,99524.00
2018-07-06T00:59:53.942Z,99523.00
2018-07-06T01:02:17.453Z,99524.00
2018-07-06T01:04:40.115Z,99528.00
2018-07-06T01:07:04.302Z,99532.00
2018-07-06T01:09:26.873Z,99523.00
2018-07-06T01:11:48.891Z,99524.00
2018-07-06T01:14:10.581Z,99525.00
2018-07-06T01:16:31.963Z,99520.00
2018-07-06T01:18:53.226Z,99524.00
2018-07-06T01:21:14.667Z,99530.00
2018-07-06T01:23:36.114Z,99528.00
2018-07-06T01:25:57.648Z,99526.00
2018-07-06T01:28:19.169Z,99536.00
2018-07-06T01:30:40.464Z,99539.00
2018-07-06T01:33:01.981Z,99541.00
2018-07-06T01:35:23.451Z,99544.00
2018-07-06T01:37:45.070Z,99543.00
2018-07-06T01:40:06.443Z,99539.00
2018-07-06T01:42:27.894Z,99536.00
2018-07-06T01:44:49.402Z,99550.00
2018-07-06T01:47:10.879Z,99543.00
2018-07-06T01:49:32.139Z,99544.00
2018-07-06T01:51:53.506Z,99545.00
2018-07-06T01:54:15.189Z,99548.00
2018-07-06T01:56:36.215Z,99545.00
2018-07-06T01:58:57.458Z,99550.00
2018-07-06T02:01:18.900Z,99557.00
2018-07-06T02:03:41.485Z,99555.00
2018-07-06T02:06:04.109Z,99550.00
2018-07-06T02:08:26.965Z,99552.00
2018-07-06T02:10:49.374Z,99550.00
2018-07-06T02:13:13.081Z,99562.00
2018-07-06T02:15:34.706Z,99552.00
2018-07-06T02:17:57.694Z,99548.00
2018-07-06T02:20:19.338Z,99560.00
2018-07-06T02:22:40.787Z,99560.00
2018-07-06T02:25:02.239Z,99566.00
2018-07-06T02:27:23.543Z,99562.00
2018-07-06T02:29:45.582Z,99574.00
2018-07-06T02:32:07.007Z,99571.00
2018-07-06T02:34:28.277Z,99583.00
2018-07-06T02:36:49.784Z,99577.00
2018-07-06T02:39:11.365Z,99574.00
2018-07-06T02:41:32.859Z,99576.00
2018-07-06T02:43:55.086Z,99580.00
2018-07-06T02:46:16.449Z,99587.00
2018-07-06T02:48:37.909Z,99580.00
2018-07-06T02:50:59.269Z,99587.00
2018-07-06T02:53:20.663Z,99593.00
2018-07-06T02:55:43.574Z,99599.00
2018-07-06T02:57:59.706Z,99603.00
2018-07-06T03:00:20.695Z,99602.00
2018-07-06T03:02:42.030Z,99597.00
2018-07-06T03:05:03.618Z,99600.00
2018-07-06T03:07:26.117Z,99600.00
2018-07-06T03:09:47.708Z,99589.00
2018-07-06T03:12:11.230Z,99594.00
2018-07-06T03:14:33.090Z,99585.00
2018-07-06T03:16:55.172Z,99596.00
2018-07-06T03:19:19.240Z,99589.00
2018-07-06T03:21:40.658Z,99598.00
2018-07-06T03:24:02.364Z,99591.00
2018-07-06T03:26:24.721Z,99584.00
2018-07-06T03:28:46.673Z,99597.00
2018-07-06T03:31:07.943Z,99591.00
2018-07-06T03:33:29.418Z,99589.00
2018-07-06T03:35:52.902Z,99580.00
2018-07-06T03:38:16.589Z,99581.00
2018-07-06T03:40:38.283Z,99579.00
2018-07-06T03:43:00.872Z,99590.00
2018-07-06T03:45:23.771Z,99598.00
2018-07-06T03:47:48.341Z,99591.00
2018-07-06T03:50:09.918Z,99595.00
2018-07-06T03:52:33.381Z,99597.00
2018-07-06T03:54:58.495Z,99606.00
2018-07-06T03:57:21.494Z,99610.00
2018-07-06T03:59:45.776Z,99615.00
2018-07-06T04:02:08.278Z,99612.00
2018-07-06T04:04:23.771Z,99614.00
2018-07-06T04:06:40.122Z,99613.00
2018-07-06T04:09:03.465Z,99616.00
2018-07-06T04:11:26.945Z,99618.00
2018-07-06T04:13:50.007Z,99626.00
2018-07-06T04:16:12.769Z,99627.00
2018-07-06T04:18:35.469Z,99624.00
2018-07-06T04:20:57.720Z,99626.00
2018-07-06T04:23:18.817Z,99625.00
2018-07-06T04:25:40.129Z,99624.00
2018-07-06T04:28:01.609Z,99634.00
2018-07-06T04:30:23.117Z,99639.00
2018-07-06T04:32:38.477Z,99636.00
2018-07-06T04:35:00.013Z,99643.00
2018-07-06T04:37:21.411Z,99647.00
2018-07-06T04:39:42.845Z,99651.00
2018-07-06T04:42:04.260Z,99653.00
2018-07-06T04:44:26.826Z,99650.00
2018-07-06T04:46:48.294Z,99657.00
2018-07-06T04:49:03.701Z,99655.00
2018-07-06T04:51:25.161Z,99657.00
2018-07-06T04:53:46.906Z,99657.00
2018-07-06T04:56:08.235Z,99659.00
2018-07-06T04:58:29.618Z,99666.00
2018-07-06T05:00:50.942Z,99670.00
2018-07-06T05:03:12.315Z,99671.00
2018-07-06T05:05:33.679Z,99669.00
2018-07-06T05:07:54.995Z,99668.00
2018-07-06T05:10:16.259Z,99668.00
2018-07-06T05:12:37.695Z,99677.00
2018-07-06T05:14:58.804Z,99680.00
2018-07-06T05:17:20.331Z,99685.00
2018-07-06T05:19:41.715Z,99685.00
2018-07-06T05:22:02.766Z,99692.00
2018-07-06T05:24:24.221Z,99695.00
2018-07-06T05:26:45.606Z,99696.00
2018-07-06T05:29:07.023Z,99688.00
2018-07-06T05:31:28.345Z,99690.00
2018-07-06T05:33:49.816Z,99692.00
2018-07-06T05:36:11.222Z,99699.00
2018-07-06T05:38:32.626Z,99701.00
2018-07-06T05:40:53.881Z,99698.00
2018-07-06T05:43:15.477Z,99707.00
2018-07-06T05:45:36.812Z,99701.00
2018-07-06T05:47:58.244Z,99702.00
2018-07-06T05:50:19.648Z,99707.00
2018-07-06T05:52:41.028Z,99716.00
2018-07-06T05:55:02.142Z,99708.00
2018-07-06T05:57:23.654Z,99714.00
2018-07-06T05:59:45.047Z,99710.00
2018-07-06T06:02:07.505Z,99713.00
2018-07-06T06:04:29.036Z,99723.00
2018-07-06T06:06:50.561Z,99724.00
2018-07-06T06:08:53.554Z,99726.00
2018-07-06T06:10:58.193Z,99734.00
2018-07-06T06:13:02.642Z,99726.00
2018-07-06T06:15:07.200Z,99724.00
2018-07-06T06:17:11.965Z,99739.00
2018-07-06T06:19:16.384Z,99738.00
2018-07-06T06:21:20.929Z,99736.00
2018-07-06T06:23:26.342Z,99756.00
2018-07-06T06:25:30.960Z,99747.00
2018-07-06T06:27:37.687Z,99746.00
2018-07-06T06:29:46.842Z,99749.00
2018-07-06T06:31:51.503Z,99739.00
2018-07-06T06:33:57.529Z,99757.00
2018-07-06T06:36:02.126Z,99750.00
2018-07-06T06:38:06.666Z,99755.00
2018-07-06T06:40:11.109Z,99757.00
2018-07-06T06:42:15.605Z,99755.00
2018-07-06T06:44:20.202Z,99757.00
2018-07-06T06:46:25.747Z,99755.00
2018-07-06T06:48:31.083Z,99761.00
2018-07-06T06:50:35.640Z,99758.00
2018-07-06T06:52:40.199Z,99765.00
2018-07-06T06:54:44.706Z,99770.00
2018-07-06T06:56:54.621Z,99757.00
2018-07-06T06:59:02.540Z,99768.00
2018-07-06T07:01:09.195Z,99759.00
2018-07-06T07:03:17.705Z,99769.00
2018-07-06T07:05:25.933Z,99767.00
2018-07-06T07:07:36.521Z,99771.00
2018-07-06T07:09:40.655Z,99777.00
2018-07-06T07:11:45.243Z,99777.00
2018-07-06T07:13:50.383Z,99776.00
2018-07-06T07:15:54.888Z,99774.00
2018-07-06T07:17:59.463Z,99779.00
2018-07-06T07:20:03.922Z,99779.00
2018-07-06T07:22:08.462Z,99784.00
2018-07-06T07:24:13.018Z,99788.00
2018-07-06T07:26:18.940Z,99788.00
2018-07-06T07:28:26.293Z,99786.00
2018-07-06T07:30:34.886Z,99795.00
2018-07-06T07:32:41.550Z,99796.00
2018-07-06T07:34:51.985Z,99788.00
2018-07-06T07:36:59.530Z,99801.00
2018-07-06T07:39:05.089Z,99796.00
2018-07-06T07:41:09.631Z,99795.00
2018-07-06T07:43:14.181Z,99794.00
2018-07-06T07:45:18.735Z,99799.00
2018-07-06T07:47:23.259Z,99800.00
2018-07-06T07:49:27.669Z,99802.00
2018-07-06T07:52:15.666Z,99804.00
2018-07-06T07:54:40.460Z,99810.00
2018-07-06T07:56:46.877Z,99810.00
2018-07-06T07:58:54.620Z,99819.00
2018-07-06T08:01:01.345Z,99818.00
2018-07-06T08:03:09.162Z,99818.00
2018-07-06T08:05:13.706Z,99819.00
2018-07-06T08:07:18.789Z,99822.00
2018-07-06T08:09:24.365Z,99820.00
2018-07-06T08:11:28.886Z,99832.00
2018-07-06T08:13:33.511Z,99833.00
2018-07-06T08:15:38.080Z,99835.00
2018-07-06T08:17:42.518Z,99839.00
2018-07-06T08:19:46.997Z,99837.00
2018-07-06T08:21:52.427Z,99838.00
2018-07-06T08:23:56.964Z,99832.00
2018-07-06T08:26:01.578Z,99836.00
2018-07-06T08:28:06.309Z,99838.00
2018-07-06T08:30:10.833Z,99841.00
2018-07-06T08:32:15.367Z,99842.00
2018-07-06T08:34:36.842Z,99845.00
2018-07-06T08:37:57.250Z,99840.00
2018-07-06T08:40:01.838Z,99838.00
2018-07-06T08:42:06.311Z,99854.00
2018-07-06T08:44:10.928Z,99845.00
2018-07-06T08:46:15.439Z,99850.00
2018-07-06T08:48:19.954Z,99847.00
2018-07-06T08:50:24.469Z,99844.00
2018-07-06T08:52:29.073Z,99849.00
2018-07-06T08:54:34.789Z,99846.00
2018-07-06T08:56:39.270Z,99847.00
2018-07-06T08:58:43.919Z,99853.00
2018-07-06T09:00:48.231Z,99856.00
2018-07-06T09:02:55.688Z,99853.00
2018-07-06T09:05:03.345Z,99858.00
2018-07-06T09:07:11.043Z,99858.00
2018-07-06T09:09:19.255Z,99858.00
2018-07-06T09:11:26.590Z,99862.00
2018-07-06T09:13:31.322Z,99864.00
2018-07-06T09:15:35.855Z,99868.00
2018-07-06T09:17:42.976Z,99874.00
2018-07-06T09:19:48.326Z,99867.00
2018-07-06T09:21:52.643Z,99861.00
2018-07-06T09:23:57.145Z,99860.00
2018-07-06T09:26:02.037Z,99868.00
2018-07-06T09:28:06.179Z,99868.00
2018-07-06T09:30:10.632Z,99865.00
2018-07-06T09:32:15.087Z,99868.00
2018-07-06T09:34:19.547Z,99855.00
2018-07-06T09:36:24.572Z,99867.00
2018-07-06T09:38:29.065Z,99863.00
2018-07-06T09:40:33.540Z,99855.00
2018-07-06T09:42:38.020Z,99858.00
2018-07-06T09:44:42.486Z,99877.00
2018-07-06T09:46:46.942Z,99868.00
2018-07-06T09:48:51.457Z,99869.00
2018-07-06T09:50:56.729Z,99865.00
2018-07-06T09:53:01.840Z,99868.00
2018-07-06T09:55:06.455Z,99868.00
2018-07-06T09:57:10.926Z,99864.00
2018-07-06T09:59:15.384Z,99861.00
2018-07-06T10:01:19.925Z,99854.00
2018-07-06T10:03:24.817Z,99860.00
2018-07-06T10:05:29.374Z,99862.00
2018-07-06T10:07:33.831Z,99868.00
2018-07-06T10:09:38.545Z,99864.00
2018-07-06T10:11:43.792Z,99864.00
2018-07-06T10:13:48.314Z,99865.00
2018-07-06T10:15:52.465Z,99856.00
2018-07-06T10:17:56.895Z,99864.00
2018-07-06T10:20:01.428Z,99859.00
2018-07-06T10:22:06.427Z,99861.00
2018-07-06T10:24:15.203Z,99855.00
2018-07-06T10:26:21.930Z,99858.00
2018-07-06T10:30:49.676Z,99859.00
2018-07-06T10:32:54.222Z,99860.00
2018-07-06T10:34:59.395Z,99858.00
2018-07-06T10:37:05.165Z,99858.00
2018-07-06T10:39:11.835Z,99862.00
2018-07-06T10:41:16.347Z,99861.00
2018-07-06T10:43:20.781Z,99862.00
2018-07-06T10:45:25.262Z,99856.00
2018-07-06T10:47:29.394Z,99862.00
2018-07-06T10:49:33.954Z,99858.00
2018-07-06T10:51:38.412Z,99858.00
2018-07-06T10:53:43.415Z,99863.00
2018-07-06T10:55:48.685Z,99866.00
2018-07-06T10:57:53.176Z,99870.00
2018-07-06T10:59:57.662Z,99871.00
2018-07-06T11:02:02.250Z,99875.00
2018-07-06T11:04:07.012Z,99871.00
2018-07-06T11:06:12.389Z,99868.00
2018-07-06T11:08:18.367Z,99872.00
2018-07-06T11:10:23.015Z,99865.00
2018-07-06T11:12:27.506Z,99870.00
2018-07-06T11:14:32.073Z,99874.00
2018-07-06T11:16:36.587Z,99863.00
2018-07-06T11:18:41.038Z,99868.00
2018-07-06T11:20:46.313Z,99866.00
2018-07-06T11:22:51.054Z,99861.00
2018-07-06T11:24:56.638Z,99862.00
2018-07-06T11:27:01.186Z,99859.00
2018-07-06T11:29:06.588Z,99870.00
2018-07-06T11:31:11.102Z,99860.00
2018-07-06T11:33:16.523Z,99863.00
2018-07-06T11:35:22.226Z,99864.00
2018-07-06T11:37:30.343Z,99867.00
2018-07-06T11:39:35.215Z,99868.00
2018-07-06T11:41:40.312Z,99863.00
2018-07-06T11:43:45.359Z,99866.00
2018-07-06T11:45:49.882Z,99859.00
2018-07-06T11:47:54.520Z,99857.00
2018-07-06T11:50:00.051Z,99863.00
2018-07-06T11:52:05.196Z,99851.00
2018-07-06T11:54:10.134Z,99854.00
2018-07-06T11:56:14.938Z,99854.00
2018-07-06T11:58:19.972Z,99855.00
2018-07-06T12:00:24.454Z,99856.00
2018-07-06T12:02:28.850Z,99861.00
2018-07-06T12:04:33.516Z,99852.00
2018-07-06T12:06:37.908Z,99854.00
2018-07-06T12:08:42.363Z,99867.00
2018-07-06T12:10:46.991Z,99864.00
2018-07-06T12:12:51.673Z,99865.00
2018-07-06T12:14:56.109Z,99859.00
2018-07-06T12:17:02.144Z,99858.00
2018-07-06T12:19:06.698Z,99866.00
2018-07-06T12:21:11.758Z,99870.00
2018-07-06T12:23:16.497Z,99865.00
2018-07-06T12:25:21.874Z,99866.00
2018-07-06T12:27:26.821Z,99861.00
2018-07-06T12:29:31.266Z,99857.00
2018-07-06T12:31:35.842Z,99860.00
2018-07-06T12:33:40.412Z,99872.00
2018-07-06T12:35:45.685Z,99871.00
2018-07-06T12:37:51.332Z,99873.00
2018-07-06T12:39:56.226Z,99855.00
2018-07-06T12:42:01.030Z,99863.00
2018-07-06T12:44:06.847Z,99871.00
2018-07-06T12:46:11.617Z,99874.00
2018-07-06T12:48:16.291Z,99867.00
2018-07-06T12:50:20.728Z,99860.00
2018-07-06T12:54:42.322Z,99851.00
2018-07-06T12:56:47.726Z,99849.00
2018-07-06T12:58:53.580Z,99849.00
2018-07-06T13:00:58.225Z,99855.00
2018-07-06T13:03:02.658Z,99849.00
2018-07-06T13:05:07.747Z,99853.00
2018-07-06T13:07:12.211Z,99850.00
2018-07-06T13:09:16.641Z,99850.00
2018-07-06T13:11:21.126Z,99867.00
2018-07-06T13:13:25.562Z,99860.00
2018-07-06T13:15:30.394Z,99859.00
2018-07-06T13:17:38.095Z,99856.00
2018-07-06T13:19:46.805Z,99853.00
2018-07-06T13:21:52.431Z,99856.00
2018-07-06T13:23:56.870Z,99857.00
2018-07-06T13:26:01.435Z,99858.00
2018-07-06T13:28:06.385Z,99858.00
2018-07-06T13:30:10.852Z,99861.00
2018-07-06T13:32:15.637Z,99866.00
2018-07-06T13:34:20.255Z,99863.00
2018-07-06T13:36:24.742Z,99862.00
2018-07-06T13:38:30.471Z,99865.00
2018-07-06T13:40:35.454Z,99854.00
2018-07-06T13:42:40.533Z,99875.00
2018-07-06T13:44:44.715Z,99869.00
2018-07-06T13:46:49.400Z,99862.00
2018-07-06T13:48:54.394Z,99865.00
2018-07-06T13:50:59.008Z,99864.00
2018-07-06T13:53:04.760Z,99862.00
2018-07-06T13:55:09.750Z,99879.00
2018-07-06T13:57:14.282Z,99864.00
2018-07-06T13:59:19.373Z,99869.00
2018-07-06T14:01:23.911Z,99860.00
2018-07-06T14:03:28.957Z,99863.00
2018-07-06T14:05:34.458Z,99871.00
2018-07-06T14:07:38.923Z,99863.00
2018-07-06T14:09:43.548Z,99863.00
2018-07-06T14:11:48.856Z,99861.00
2018-07-06T14:13:53.736Z,99870.00
2018-07-06T14:15:58.329Z,99873.00
2018-07-06T14:18:03.142Z,99870.00
2018-07-06T14:20:07.722Z,99879.00
2018-07-06T14:22:12.236Z,99873.00
2018-07-06T14:24:16.866Z,99872.00
2018-07-06T14:26:21.859Z,99878.00
2018-07-06T14:28:26.788Z,99874.00
2018-07-06T14:30:31.290Z,99869.00
2018-07-06T14:32:35.803Z,99865.00
2018-07-06T14:34:41.504Z,99874.00
2018-07-06T14:36:45.993Z,99872.00
2018-07-06T14:38:50.540Z,99868.00
2018-07-06T14:40:55.025Z,99873.00
2018-07-06T14:43:00.014Z,99873.00
2018-07-06T14:45:07.318Z,99868.00
2018-07-06T14:47:11.863Z,99871.00
2018-07-06T14:49:16.897Z,99873.00
2018-07-06T14:51:21.367Z,99875.00
2018-07-06T14:53:27.067Z,99866.00
2018-07-06T14:55:31.552Z,99869.00
2018-07-06T14:57:36.350Z,99865.00
2018-07-06T14:59:40.620Z,99867.00
2018-07-06T15:01:45.302Z,99868.00
2018-07-06T15:03:49.814Z,99865.00
2018-07-06T15:05:54.358Z,99861.00
2018-07-06T15:07:58.820Z,99867.00
2018-07-06T15:10:03.266Z,99862.00
2018-07-06T15:12:07.714Z,99868.00
2018-07-06T15:14:12.450Z,99870.00
2018-07-06T15:16:16.965Z,99871.00
2018-07-06T15:18:22.275Z,99875.00
2018-07-06T15:20:28.929Z,99881.00
2018-07-06T15:22:34.313Z,99876.00
2018-07-06T15:24:39.685Z,99881.00
2018-07-06T15:26:44.339Z,99889.00
2018-07-06T15:28:49.031Z,99894.00
2018-07-06T15:30:54.448Z,99891.00
2018-07-06T15:32:59.491Z,99890.00
2018-07-06T15:35:04.994Z,99891.00
2018-07-06T15:37:09.553Z,99898.00
2018-07-06T15:39:14.371Z,99882.00
2018-07-06T15:41:19.090Z,99890.00
2018-07-06T15:43:24.130Z,99900.00
2018-07-06T15:45:28.739Z,99893.00
2018-07-06T15:47:33.374Z,99899.00
2018-07-06T15:49:38.069Z,99901.00
2018-07-06T15:51:42.705Z,99894.00
2018-07-06T15:53:48.492Z,99897.00
2018-07-06T15:55:53.278Z,99904.00
2018-07-06T15:57:59.175Z,99899.00
2018-07-06T16:00:04.213Z,99906.00
2018-07-06T16:02:09.558Z,99902.00
2018-07-06T16:04:14.913Z,99903.00
2018-07-06T16:06:19.816Z,99898.00
2018-07-06T16:08:24.311Z,99903.00
2018-07-06T16:10:28.840Z,99897.00
2018-07-06T16:12:33.087Z,99903.00
2018-07-06T16:14:37.587Z,99896.00
2018-07-06T16:16:42.055Z,99903.00
2018-07-06T16:18:46.551Z,99900.00
2018-07-06T16:20:51.399Z,99899.00
2018-07-06T16:22:55.880Z,99904.00
2018-07-06T16:25:00.406Z,99896.00
2018-07-06T16:27:07.187Z,99897.00
2018-07-06T16:29:11.883Z,99900.00
2018-07-06T16:31:16.444Z,99900.00
2018-07-06T16:33:21.238Z,99887.00
2018-07-06T16:35:25.786Z,99898.00
2018-07-06T16:37:30.493Z,99901.00
2018-07-06T16:39:35.157Z,99892.00
2018-07-06T16:41:39.950Z,99905.00
2018-07-06T16:43:44.435Z,99896.00
2018-07-06T16:45:48.897Z,99894.00
2018-07-06T16:47:54.538Z,99898.00
2018-07-06T16:49:59.043Z,99897.00
2018-07-06T16:52:04.295Z,99890.00
2018-07-06T16:54:09.797Z,99898.00
2018-07-06T16:56:14.883Z,99889.00
2018-07-06T16:58:19.305Z,99900.00
2018-07-06T17:00:23.982Z,99895.00
2018-07-06T17:02:30.147Z,99893.00
2018-07-06T17:04:35.015Z,99892.00
2018-07-06T17:06:39.851Z,99894.00
2018-07-06T17:08:44.554Z,99896.00
2018-07-06T17:10:49.063Z,99900.00
2018-07-06T17:12:53.518Z,99900.00
2018-07-06T17:14:57.983Z,99893.00
2018-07-06T17:17:02.438Z,99899.00
2018-07-06T17:19:06.990Z,99893.00
2018-07-06T17:21:11.426Z,99904.00
2018-07-06T17:23:16.201Z,99897.00
2018-07-06T17:25:21.079Z,99897.00
2018-07-06T17:27:25.533Z,99902.00
2018-07-06T17:29:30.531Z,99897.00
2018-07-06T17:31:35.072Z,99904.00
2018-07-06T17:33:40.890Z,99903.00
2018-07-06T17:35:45.396Z,99905.00
2018-07-06T17:37:49.907Z,99915.00
2018-07-06T17:39:55.119Z,99914.00
2018-07-06T17:42:00.738Z,99905.00
2018-07-06T17:44:05.261Z,99905.00
2018-07-06T17:46:09.882Z,99907.00
2018-07-06T17:48:14.424Z,99912.00
2018-07-06T17:50:18.979Z,99913.00
2018-07-06T17:52:23.534Z,99913.00
2018-07-06T17:54:28.019Z,99911.00
2018-07-06T17:56:32.704Z,99917.00
2018-07-06T17:58:37.267Z,99916.00
2018-07-06T18:00:41.797Z,99914.00
2018-07-06T18:02:46.269Z,99919.00
2018-07-06T18:04:51.017Z,99917.00
2018-07-06T18:06:55.679Z,99908.00
2018-07-06T18:09:00.983Z,99911.00
2018-07-06T18:11:05.977Z,99909.00
2018-07-06T18:13:10.645Z,99907.00
2018-07-06T18:15:16.272Z,99908.00
2018-07-06T18:17:20.906Z,99911.00
2018-07-06T18:19:28.202Z,99905.00
2018-07-06T18:21:32.914Z,99907.00
2018-07-06T18:23:37.678Z,99903.00
2018-07-06T18:25:43.084Z,99900.00
2018-07-06T18:27:48.699Z,99914.00
2018-07-06T18:29:53.656Z,99898.00
2018-07-06T18:31:58.357Z,99900.00
2018-07-06T18:34:03.285Z,99909.00
2018-07-06T18:36:07.926Z,99901.00
2018-07-06T18:38:12.459Z,99901.00
2018-07-06T18:40:17.374Z,99903.00
2018-07-06T18:42:21.821Z,99907.00
2018-07-06T18:44:26.377Z,99912.00
2018-07-06T18:46:30.857Z,99908.00
2018-07-06T18:48:35.459Z,99913.00
2018-07-06T18:50:41.095Z,99909.00
2018-07-06T18:52:45.828Z,99909.00
2018-07-06T18:54:50.475Z,99910.00
2018-07-06T18:56:58.892Z,99914.00
2018-07-06T18:59:07.542Z,99908.00
2018-07-06T19:01:14.613Z,99918.00
2018-07-06T19:03:22.268Z,99916.00
2018-07-06T19:05:29.061Z,99918.00
2018-07-06T19:07:34.638Z,99914.00
2018-07-06T19:09:40.263Z,99917.00
2018-07-06T19:11:46.146Z,99918.00
2018-07-06T19:13:52.830Z,99918.00
2018-07-06T19:15:58.497Z,99912.00
2018-07-06T19:18:05.195Z,99920.00
2018-07-06T19:20:12.335Z,99915.00
2018-07-06T19:22:17.073Z,99929.00
2018-07-06T19:24:22.077Z,99930.00
2018-07-06T19:26:28.905Z,99930.00
2018-07-06T19:28:36.446Z,99931.00
2018-07-06T19:30:44.214Z,99930.00
2018-07-06T19:32:48.809Z,99935.00
2018-07-06T19:34:53.246Z,99936.00
2018-07-06T19:36:57.774Z,99936.00
2018-07-06T19:39:02.338Z,99948.00
2018-07-06T19:41:06.850Z,99947.00
2018-07-06T19:43:11.666Z,99956.00
2018-07-06T19:45:25.121Z,99950.00
2018-07-06T19:47:29.858Z,99965.00
2018-07-06T19:49:34.270Z,99968.00
2018-07-06T19:51:39.106Z,99965.00
2018-07-06T19:53:44.939Z,99973.00
2018-07-06T19:55:49.434Z,99965.00
2018-07-06T19:57:54.235Z,99980.00
2018-07-06T19:59:58.658Z,99981.00
2018-07-06T20:02:03.455Z,99977.00
2018-07-06T20:04:08.273Z,99979.00
2018-07-06T20:06:13.690Z,99987.00
2018-07-06T20:08:18.454Z,99980.00
2018-07-06T20:10:23.558Z,99986.00
2018-07-06T20:12:28.356Z,99985.00
2018-07-06T20:14:32.678Z,99992.00
2018-07-06T20:16:37.166Z,99994.00
2018-07-06T20:18:41.932Z,99997.00
2018-07-06T20:20:46.921Z,99999.00
2018-07-06T20:22:51.614Z,99998.00
2018-07-06T20:24:56.086Z,99998.00
2018-07-06T20:27:00.665Z,99995.00
2018-07-06T20:29:04.875Z,99997.00
2018-07-06T20:31:09.509Z,100007.00
2018-07-06T20:33:14.409Z,100004.00
2018-07-06T20:35:18.926Z,100002.00
2018-07-06T20:37:23.394Z,100014.00
2018-07-06T20:39:27.979Z,100011.00
2018-07-06T20:41:32.998Z,100010.00
2018-07-06T20:43:37.879Z,100014.00
2018-07-06T20:45:42.758Z,100008.00
2018-07-06T20:47:47.760Z,100014.00
2018-07-06T20:49:52.464Z,100016.00
2018-07-06T20:51:57.890Z,100017.00
2018-07-06T20:54:02.472Z,100012.00
2018-07-06T20:56:07.346Z,100016.00
2018-07-06T20:58:12.596Z,100008.00
2018-07-06T21:00:17.378Z,100013.00
2018-07-06T21:02:21.877Z,100015.00
2018-07-06T21:04:26.867Z,100012.00
2018-07-06T21:06:31.533Z,100018.00
2018-07-06T21:08:36.482Z,100025.00
2018-07-06T21:10:41.449Z,100020.00
2018-07-06T21:12:47.287Z,100010.00
2018-07-06T21:14:51.958Z,100022.00
2018-07-06T21:16:56.999Z,100020.00
2018-07-06T21:19:01.775Z,100023.00
2018-07-06T21:21:06.526Z,100021.00
2018-07-06T21:23:11.147Z,100027.00
2018-07-06T21:25:15.654Z,100025.00
2018-07-06T21:27:19.905Z,100021.00
2018-07-06T21:29:25.989Z,100022.00
2018-07-06T21:31:30.538Z,100030.00
2018-07-06T21:33:34.983Z,100040.00
2018-07-06T21:35:39.508Z,100035.00
2018-07-06T21:37:44.613Z,100039.00
2018-07-06T21:39:49.019Z,100043.00
2018-07-06T21:41:53.495Z,100034.00
2018-07-06T21:43:58.023Z,100045.00
2018-07-06T21:46:02.485Z,100028.00
2018-07-06T21:48:10.905Z,100049.00
2018-07-06T21:50:17.419Z,100049.00
2018-07-06T21:52:21.994Z,100048.00
2018-07-06T21:54:30.602Z,100045.00
2018-07-06T21:56:38.160Z,100046.00
2018-07-06T21:58:45.030Z,100048.00
2018-07-06T22:00:49.673Z,100060.00
2018-07-06T22:02:55.522Z,100055.00
2018-07-06T22:05:00.850Z,100056.00
2018-07-06T22:07:05.370Z,100062.00
2018-07-06T22:09:11.447Z,100060.00
2018-07-06T22:11:18.078Z,100060.00
2018-07-06T22:13:22.598Z,100057.00
2018-07-06T22:15:34.038Z,100065.00
2018-07-06T22:17:40.279Z,100065.00
2018-07-06T22:19:45.146Z,100053.00
2018-07-06T22:21:49.581Z,100064.00
2018-07-06T22:23:54.064Z,100063.00
2018-07-06T22:25:58.522Z,100056.00
2018-07-06T22:28:03.040Z,100054.00
2018-07-06T22:30:07.275Z,100055.00
2018-07-06T22:32:11.674Z,100070.00
2018-07-06T22:34:16.585Z,100054.00
2018-07-06T22:36:21.001Z,100063.00
2018-07-06T22:38:25.567Z,100062.00
2018-07-06T22:40:30.082Z,100058.00
2018-07-06T22:42:34.535Z,100058.00
2018-07-06T22:44:39.166Z,100064.00
2018-07-06T22:46:43.599Z,100061.00
2018-07-06T22:48:48.064Z,100061.00
2018-07-06T22:50:52.501Z,100065.00
2018-07-06T22:52:56.975Z,100068.00
2018-07-06T22:55:01.501Z,100066.00
2018-07-06T22:57:07.093Z,100056.00
2018-07-06T22:59:11.539Z,100066.00
2018-07-06T23:01:15.646Z,100059.00
2018-07-06T23:03:20.142Z,100059.00
2018-07-06T23:05:24.673Z,100045.00
2018-07-06T23:07:29.114Z,100051.00
2018-07-06T23:09:33.559Z,100055.00
2018-07-06T23:11:37.998Z,100060.00
2018-07-06T23:13:42.494Z,100062.00
2018-07-06T23:15:47.464Z,100060.00
2018-07-06T23:17:51.958Z,100065.00
2018-07-06T23:19:56.406Z,100054.00
2018-07-06T23:22:01.062Z,100055.00
2018-07-06T23:24:05.575Z,100055.00
2018-07-06T23:26:10.030Z,100060.00
2018-07-06T23:28:14.614Z,100051.00
2018-07-06T23:30:19.083Z,100057.00
2018-07-06T23:32:23.518Z,100056.00
2018-07-06T23:34:28.035Z,100063.00
2018-07-06T23:36:32.482Z,100060.00
2018-07-06T23:38:36.904Z,100068.00
2018-07-06T23:40:41.429Z,100068.00
2018-07-06T23:42:45.861Z,100075.00
2018-07-06T23:44:50.339Z,100075.00
2018-07-06T23:46:54.831Z,100073.00
2018-07-06T23:48:59.430Z,100077.00
2018-07-06T23:51:03.870Z,100077.00
2018-07-06T23:53:08.333Z,100080.00
2018-07-06T23:55:13.261Z,100080.00
2018-07-06T23:57:17.758Z,100070.00
2018-07-06T23:59:22.198Z,100075.00
